createdAt,value
2022-12-31T00:01:30.849Z,7.13
2022-12-31T00:11:37.871Z,9.98
2022-12-31T00:21:40.750Z,8.18
2022-12-31T00:31:44.839Z,3.83
2022-12-31T00:41:47.594Z,3.17
2022-12-31T00:51:51.694Z,4.47
2022-12-31T01:01:54.432Z,4.82
2022-12-31T01:11:58.566Z,5.38
2022-12-31T01:22:01.231Z,4.40
2022-12-31T01:32:05.890Z,7.75
2022-12-31T01:42:12.433Z,7.00
2022-12-31T01:52:22.088Z,6.00
2022-12-31T02:02:25.066Z,7.30
2022-12-31T02:12:29.280Z,9.45
2022-12-31T02:22:46.546Z,9.13
2022-12-31T02:33:04.418Z,8.82
2022-12-31T02:43:07.431Z,8.10
2022-12-31T02:53:24.169Z,7.63
2022-12-31T03:03:28.737Z,7.13
2022-12-31T03:13:32.780Z,5.72
2022-12-31T03:23:38.347Z,4.68
2022-12-31T03:33:43.208Z,5.95
2022-12-31T03:43:45.923Z,4.93
2022-12-31T03:53:50.065Z,6.70
2022-12-31T04:03:52.747Z,5.82
2022-12-31T04:13:59.124Z,4.60
2022-12-31T04:24:02.584Z,4.07
2022-12-31T04:34:06.671Z,2.63
2022-12-31T04:44:09.410Z,6.55
2022-12-31T04:54:13.473Z,2.33
2022-12-31T05:04:16.194Z,5.75
2022-12-31T05:14:20.430Z,2.95
2022-12-31T05:24:23.165Z,3.42
2022-12-31T05:34:27.283Z,2.45
2022-12-31T05:44:30.393Z,3.40
2022-12-31T05:54:34.820Z,7.97
2022-12-31T06:04:37.569Z,6.90
2022-12-31T06:14:45.586Z,4.40
2022-12-31T06:24:48.703Z,5.47
2022-12-31T06:34:52.728Z,3.70
2022-12-31T06:44:55.456Z,4.05
2022-12-31T06:55:00.715Z,2.85
2022-12-31T07:05:14.890Z,3.30
2022-12-31T07:15:28.645Z,5.00
2022-12-31T07:25:32.033Z,8.70
2022-12-31T07:35:44.437Z,4.20
2022-12-31T07:45:51.418Z,4.95
2022-12-31T07:56:00.413Z,7.25
2022-12-31T08:06:12.311Z,3.42
2022-12-31T08:16:16.980Z,4.97
2022-12-31T08:26:28.632Z,5.47
2022-12-31T08:36:42.206Z,6.07
2022-12-31T08:46:50.439Z,7.07
2022-12-31T08:57:03.510Z,5.93
2022-12-31T09:07:09.545Z,5.15
2022-12-31T09:17:33.078Z,4.72
2022-12-31T09:27:41.854Z,4.35
2022-12-31T09:37:49.481Z,4.80
2022-12-31T09:48:17.137Z,4.97
2022-12-31T09:58:33.376Z,5.38
2022-12-31T10:08:50.631Z,3.08
2022-12-31T10:19:23.854Z,2.47
2022-12-31T10:29:35.329Z,2.03
2022-12-31T10:39:54.923Z,2.53
2022-12-31T10:50:34.078Z,4.15
2022-12-31T11:00:42.194Z,2.27
2022-12-31T11:11:23.529Z,1.98
2022-12-31T11:21:42.048Z,2.80
2022-12-31T11:32:00.828Z,3.60
2022-12-31T11:42:19.437Z,6.45
2022-12-31T11:52:52.445Z,6.30
2022-12-31T12:03:00.000Z,2.53
2022-12-31T12:13:13.702Z,3.47
2022-12-31T12:23:24.437Z,3.17
2022-12-31T12:33:29.629Z,3.85
2022-12-31T12:43:35.390Z,5.95
2022-12-31T12:53:51.596Z,6.28
2022-12-31T13:14:47.014Z,3.30
2022-12-31T13:25:01.757Z,3.67
2022-12-31T13:35:18.276Z,3.83
2022-12-31T13:45:28.158Z,4.88
2022-12-31T13:55:34.672Z,3.67
2022-12-31T14:05:48.077Z,4.57
2022-12-31T14:16:01.217Z,2.72
2022-12-31T14:26:08.514Z,3.75
2022-12-31T14:36:20.748Z,0.20
2022-12-31T14:46:30.829Z,0.10
2022-12-31T14:56:42.455Z,0.17
2022-12-31T15:06:57.468Z,0.10
2022-12-31T15:17:10.052Z,0.20
2022-12-31T15:27:35.403Z,0.10
2022-12-31T15:37:38.234Z,0.10
2022-12-31T15:47:46.826Z,0.10
2022-12-31T15:57:51.019Z,0.10
2022-12-31T16:07:56.616Z,0.20
2022-12-31T16:18:01.781Z,0.10
2022-12-31T16:28:05.875Z,0.20
2022-12-31T16:38:14.656Z,0.15
2022-12-31T16:48:20.626Z,0.20
2022-12-31T16:58:27.744Z,0.28
2022-12-31T17:08:42.085Z,0.10
2022-12-31T17:18:46.033Z,0.25
2022-12-31T17:28:51.916Z,0.30
2022-12-31T17:38:54.634Z,0.20
2022-12-31T17:49:03.432Z,0.20
2022-12-31T17:59:06.816Z,0.32
2022-12-31T18:09:11.086Z,0.70
2022-12-31T18:19:37.958Z,0.40
2022-12-31T18:29:39.917Z,0.20
2022-12-31T18:39:42.806Z,0.57
2022-12-31T18:49:48.485Z,0.17
2022-12-31T18:59:51.141Z,0.20
2022-12-31T19:09:58.547Z,0.20
2022-12-31T19:20:04.323Z,0.10
2022-12-31T19:30:16.550Z,0.10
2022-12-31T19:40:22.797Z,0.10
2022-12-31T19:50:28.415Z,0.20
2022-12-31T20:00:31.115Z,0.10
2022-12-31T20:10:35.294Z,0.20
2022-12-31T20:20:38.038Z,0.10
2022-12-31T20:30:42.129Z,4.38
2022-12-31T20:40:47.036Z,0.20
2022-12-31T20:50:57.033Z,9.65
2022-12-31T21:11:24.144Z,6.25
2022-12-31T21:21:26.873Z,7.72
2022-12-31T21:31:30.952Z,8.82
2022-12-31T21:41:51.833Z,8.52
2022-12-31T21:52:13.575Z,10.43
2022-12-31T22:02:34.167Z,9.98
2022-12-31T22:12:38.504Z,7.97
2022-12-31T22:22:41.236Z,12.07
2022-12-31T22:32:45.335Z,10.27
2022-12-31T22:42:47.984Z,12.98
2022-12-31T22:52:52.037Z,12.88
2022-12-31T23:02:54.752Z,36.45
2022-12-31T23:13:19.852Z,46.67
2022-12-31T23:23:22.678Z,61.42
2022-12-31T23:33:27.394Z,21.17
2022-12-31T23:43:30.080Z,19.77
2022-12-31T23:53:34.171Z,15.52
